sensor_id;sensor_type;location;lat;lon;timestamp;P1;durP1;ratioP1;P2;durP2;ratioP2
62863;SDS011;48954;59.950;11.014;2023-03-01T00:01:53;4.60;;;1.80;;
62863;SDS011;48954;59.950;11.014;2023-03-01T00:04:19;4.40;;;2.10;;
62863;SDS011;48954;59.950;11.014;2023-03-01T00:06:47;8.00;;;2.10;;
62863;SDS011;48954;59.950;11.014;2023-03-01T00:09:27;4.50;;;1.60;;
62863;SDS011;48954;59.950;11.014;2023-03-01T00:11:54;2.60;;;1.10;;
62863;SDS011;48954;59.950;11.014;2023-03-01T00:14:28;5.70;;;1.50;;
62863;SDS011;48954;59.950;11.014;2023-03-01T00:16:58;4.10;;;1.70;;
62863;SDS011;48954;59.950;11.014;2023-03-01T00:19:33;4.70;;;2.40;;
62863;SDS011;48954;59.950;11.014;2023-03-01T00:22:02;4.50;;;1.70;;
62863;SDS011;48954;59.950;11.014;2023-03-01T00:24:28;4.90;;;1.80;;
62863;SDS011;48954;59.950;11.014;2023-03-01T00:27:04;2.40;;;1.40;;
62863;SDS011;48954;59.950;11.014;2023-03-01T00:29:44;3.30;;;1.40;;
62863;SDS011;48954;59.950;11.014;2023-03-01T00:32:16;3.80;;;1.20;;
62863;SDS011;48954;59.950;11.014;2023-03-01T00:34:46;4.10;;;1.30;;
62863;SDS011;48954;59.950;11.014;2023-03-01T00:37:16;3.70;;;1.50;;
62863;SDS011;48954;59.950;11.014;2023-03-01T00:39:43;4.50;;;1.60;;
62863;SDS011;48954;59.950;11.014;2023-03-01T00:42:15;3.10;;;1.30;;
62863;SDS011;48954;59.950;11.014;2023-03-01T00:44:46;2.90;;;1.60;;
62863;SDS011;48954;59.950;11.014;2023-03-01T00:47:21;4.30;;;1.30;;
62863;SDS011;48954;59.950;11.014;2023-03-01T00:49:49;4.50;;;1.60;;
62863;SDS011;48954;59.950;11.014;2023-03-01T00:52:16;2.90;;;1.40;;
62863;SDS011;48954;59.950;11.014;2023-03-01T00:54:54;3.50;;;1.30;;
62863;SDS011;48954;59.950;11.014;2023-03-01T00:57:26;3.30;;;1.50;;
62863;SDS011;48954;59.950;11.014;2023-03-01T00:59:55;2.90;;;1.30;;
62863;SDS011;48954;59.950;11.014;2023-03-01T01:02:21;4.70;;;1.50;;
62863;SDS011;48954;59.950;11.014;2023-03-01T01:05:04;2.60;;;1.10;;
62863;SDS011;48954;59.950;11.014;2023-03-01T01:07:31;4.90;;;2.00;;
62863;SDS011;48954;59.950;11.014;2023-03-01T01:10:03;3.50;;;1.40;;
62863;SDS011;48954;59.950;11.014;2023-03-01T01:12:30;4.80;;;1.20;;
62863;SDS011;48954;59.950;11.014;2023-03-01T01:15:00;4.00;;;1.20;;
62863;SDS011;48954;59.950;11.014;2023-03-01T01:17:27;2.70;;;1.20;;
62863;SDS011;48954;59.950;11.014;2023-03-01T01:19:55;3.00;;;1.50;;
62863;SDS011;48954;59.950;11.014;2023-03-01T01:22:22;2.50;;;1.20;;
62863;SDS011;48954;59.950;11.014;2023-03-01T01:24:48;3.30;;;1.20;;
62863;SDS011;48954;59.950;11.014;2023-03-01T01:27:16;3.20;;;1.30;;
62863;SDS011;48954;59.950;11.014;2023-03-01T01:29:52;3.50;;;1.30;;
62863;SDS011;48954;59.950;11.014;2023-03-01T01:32:18;5.00;;;1.70;;
62863;SDS011;48954;59.950;11.014;2023-03-01T01:34:45;4.80;;;2.10;;
62863;SDS011;48954;59.950;11.014;2023-03-01T01:37:11;5.20;;;2.10;;
62863;SDS011;48954;59.950;11.014;2023-03-01T01:39:49;6.10;;;2.50;;
62863;SDS011;48954;59.950;11.014;2023-03-01T01:42:16;4.90;;;2.30;;
62863;SDS011;48954;59.950;11.014;2023-03-01T01:44:48;7.30;;;2.20;;
62863;SDS011;48954;59.950;11.014;2023-03-01T01:47:37;4.90;;;2.20;;
62863;SDS011;48954;59.950;11.014;2023-03-01T01:50:04;7.60;;;2.60;;
62863;SDS011;48954;59.950;11.014;2023-03-01T01:52:35;6.70;;;2.50;;
62863;SDS011;48954;59.950;11.014;2023-03-01T01:55:11;6.30;;;2.40;;
62863;SDS011;48954;59.950;11.014;2023-03-01T01:57:55;9.50;;;3.60;;
62863;SDS011;48954;59.950;11.014;2023-03-01T02:00:26;7.60;;;3.10;;
62863;SDS011;48954;59.950;11.014;2023-03-01T02:03:09;6.70;;;3.40;;
62863;SDS011;48954;59.950;11.014;2023-03-01T02:05:43;8.00;;;3.20;;
62863;SDS011;48954;59.950;11.014;2023-03-01T02:08:14;5.60;;;2.40;;
62863;SDS011;48954;59.950;11.014;2023-03-01T02:10:46;8.00;;;2.90;;
62863;SDS011;48954;59.950;11.014;2023-03-01T02:13:18;8.10;;;3.50;;
62863;SDS011;48954;59.950;11.014;2023-03-01T02:15:46;7.30;;;2.70;;
62863;SDS011;48954;59.950;11.014;2023-03-01T02:18:14;5.40;;;2.90;;
62863;SDS011;48954;59.950;11.014;2023-03-01T02:23:34;5.30;;;1.60;;
62863;SDS011;48954;59.950;11.014;2023-03-01T02:28:45;4.10;;;1.60;;
62863;SDS011;48954;59.950;11.014;2023-03-01T02:31:14;7.30;;;2.90;;
62863;SDS011;48954;59.950;11.014;2023-03-01T02:33:44;2.70;;;1.40;;
62863;SDS011;48954;59.950;11.014;2023-03-01T02:36:14;2.80;;;1.30;;
62863;SDS011;48954;59.950;11.014;2023-03-01T02:38:48;4.20;;;1.80;;
62863;SDS011;48954;59.950;11.014;2023-03-01T02:41:20;2.70;;;1.20;;
62863;SDS011;48954;59.950;11.014;2023-03-01T02:44:01;3.80;;;1.70;;
62863;SDS011;48954;59.950;11.014;2023-03-01T02:46:29;3.50;;;1.30;;
62863;SDS011;48954;59.950;11.014;2023-03-01T02:49:16;3.20;;;1.60;;
62863;SDS011;48954;59.950;11.014;2023-03-01T02:55:18;2.40;;;0.90;;
62863;SDS011;48954;59.950;11.014;2023-03-01T02:57:46;1.70;;;0.70;;
62863;SDS011;48954;59.950;11.014;2023-03-01T03:00:28;3.00;;;1.30;;
62863;SDS011;48954;59.950;11.014;2023-03-01T03:03:17;2.50;;;1.30;;
62863;SDS011;48954;59.950;11.014;2023-03-01T03:06:08;4.10;;;1.80;;
62863;SDS011;48954;59.950;11.014;2023-03-01T03:08:39;4.10;;;1.90;;
62863;SDS011;48954;59.950;11.014;2023-03-01T03:11:20;5.00;;;2.50;;
62863;SDS011;48954;59.950;11.014;2023-03-01T03:13:54;4.70;;;1.60;;
62863;SDS011;48954;59.950;11.014;2023-03-01T03:16:24;4.50;;;1.80;;
62863;SDS011;48954;59.950;11.014;2023-03-01T03:19:04;3.00;;;1.30;;
62863;SDS011;48954;59.950;11.014;2023-03-01T03:22:38;2.00;;;0.90;;
62863;SDS011;48954;59.950;11.014;2023-03-01T03:25:41;3.40;;;1.40;;
62863;SDS011;48954;59.950;11.014;2023-03-01T03:28:21;4.10;;;1.60;;
62863;SDS011;48954;59.950;11.014;2023-03-01T03:30:53;4.00;;;1.30;;
62863;SDS011;48954;59.950;11.014;2023-03-01T03:33:33;1.90;;;0.90;;
62863;SDS011;48954;59.950;11.014;2023-03-01T03:36:17;2.90;;;0.90;;
62863;SDS011;48954;59.950;11.014;2023-03-01T03:38:49;2.70;;;1.30;;
62863;SDS011;48954;59.950;11.014;2023-03-01T03:41:21;1.40;;;0.70;;
62863;SDS011;48954;59.950;11.014;2023-03-01T03:43:49;3.00;;;1.10;;
62863;SDS011;48954;59.950;11.014;2023-03-01T03:46:23;2.70;;;1.30;;
62863;SDS011;48954;59.950;11.014;2023-03-01T03:48:54;2.60;;;1.10;;
62863;SDS011;48954;59.950;11.014;2023-03-01T03:51:21;2.80;;;1.00;;
62863;SDS011;48954;59.950;11.014;2023-03-01T03:53:49;6.30;;;2.80;;
62863;SDS011;48954;59.950;11.014;2023-03-01T03:56:30;1.90;;;0.80;;
62863;SDS011;48954;59.950;11.014;2023-03-01T03:58:57;2.60;;;1.10;;
62863;SDS011;48954;59.950;11.014;2023-03-01T04:01:26;2.90;;;1.30;;
62863;SDS011;48954;59.950;11.014;2023-03-01T04:03:56;2.30;;;1.00;;
62863;SDS011;48954;59.950;11.014;2023-03-01T04:06:24;2.10;;;0.80;;
62863;SDS011;48954;59.950;11.014;2023-03-01T04:08:52;2.00;;;0.80;;
62863;SDS011;48954;59.950;11.014;2023-03-01T04:11:24;1.80;;;0.90;;
62863;SDS011;48954;59.950;11.014;2023-03-01T04:13:52;2.30;;;1.00;;
62863;SDS011;48954;59.950;11.014;2023-03-01T04:16:36;1.70;;;0.80;;
62863;SDS011;48954;59.950;11.014;2023-03-01T04:19:04;1.60;;;0.70;;
62863;SDS011;48954;59.950;11.014;2023-03-01T04:21:30;1.60;;;0.60;;
62863;SDS011;48954;59.950;11.014;2023-03-01T04:23:58;2.70;;;1.10;;
62863;SDS011;48954;59.950;11.014;2023-03-01T04:26:24;1.50;;;0.70;;
62863;SDS011;48954;59.950;11.014;2023-03-01T04:28:56;1.30;;;0.50;;
62863;SDS011;48954;59.950;11.014;2023-03-01T04:31:27;1.30;;;0.50;;
62863;SDS011;48954;59.950;11.014;2023-03-01T04:33:56;3.30;;;1.40;;
62863;SDS011;48954;59.950;11.014;2023-03-01T04:36:36;4.50;;;1.60;;
62863;SDS011;48954;59.950;11.014;2023-03-01T04:39:18;5.10;;;1.80;;
62863;SDS011;48954;59.950;11.014;2023-03-01T04:41:58;3.20;;;1.10;;
62863;SDS011;48954;59.950;11.014;2023-03-01T04:44:29;2.80;;;1.20;;
62863;SDS011;48954;59.950;11.014;2023-03-01T04:46:55;3.50;;;1.40;;
62863;SDS011;48954;59.950;11.014;2023-03-01T04:49:24;2.60;;;1.20;;
62863;SDS011;48954;59.950;11.014;2023-03-01T04:52:05;3.60;;;1.50;;
62863;SDS011;48954;59.950;11.014;2023-03-01T04:54:32;3.30;;;1.50;;
62863;SDS011;48954;59.950;11.014;2023-03-01T04:57:01;3.50;;;1.20;;
62863;SDS011;48954;59.950;11.014;2023-03-01T04:59:36;3.20;;;1.50;;
62863;SDS011;48954;59.950;11.014;2023-03-01T05:02:05;4.70;;;2.10;;
62863;SDS011;48954;59.950;11.014;2023-03-01T05:04:31;5.30;;;2.70;;
62863;SDS011;48954;59.950;11.014;2023-03-01T05:07:00;15.00;;;7.60;;
62863;SDS011;48954;59.950;11.014;2023-03-01T05:09:31;6.30;;;3.00;;
62863;SDS011;48954;59.950;11.014;2023-03-01T05:12:00;5.60;;;3.10;;
62863;SDS011;48954;59.950;11.014;2023-03-01T05:14:41;4.30;;;2.10;;
62863;SDS011;48954;59.950;11.014;2023-03-01T05:17:22;4.70;;;2.30;;
62863;SDS011;48954;59.950;11.014;2023-03-01T05:19:49;3.00;;;1.70;;
62863;SDS011;48954;59.950;11.014;2023-03-01T05:22:19;4.40;;;1.80;;
62863;SDS011;48954;59.950;11.014;2023-03-01T05:24:48;4.60;;;2.50;;
62863;SDS011;48954;59.950;11.014;2023-03-01T05:27:29;5.70;;;2.70;;
62863;SDS011;48954;59.950;11.014;2023-03-01T05:29:55;4.20;;;2.20;;
62863;SDS011;48954;59.950;11.014;2023-03-01T05:32:36;3.90;;;1.60;;
62863;SDS011;48954;59.950;11.014;2023-03-01T05:35:05;4.00;;;1.90;;
62863;SDS011;48954;59.950;11.014;2023-03-01T05:37:35;3.70;;;2.10;;
62863;SDS011;48954;59.950;11.014;2023-03-01T05:40:04;7.30;;;3.20;;
62863;SDS011;48954;59.950;11.014;2023-03-01T05:42:34;7.00;;;3.00;;
62863;SDS011;48954;59.950;11.014;2023-03-01T05:45:02;7.30;;;3.20;;
62863;SDS011;48954;59.950;11.014;2023-03-01T05:47:41;7.70;;;3.40;;
62863;SDS011;48954;59.950;11.014;2023-03-01T05:50:32;11.30;;;5.10;;
62863;SDS011;48954;59.950;11.014;2023-03-01T05:53:12;11.40;;;3.00;;
62863;SDS011;48954;59.950;11.014;2023-03-01T05:55:42;13.60;;;5.40;;
62863;SDS011;48954;59.950;11.014;2023-03-01T05:58:18;9.60;;;4.10;;
62863;SDS011;48954;59.950;11.014;2023-03-01T06:00:46;7.40;;;3.50;;
62863;SDS011;48954;59.950;11.014;2023-03-01T06:03:30;7.60;;;3.20;;
62863;SDS011;48954;59.950;11.014;2023-03-01T06:06:06;8.90;;;3.80;;
62863;SDS011;48954;59.950;11.014;2023-03-01T06:08:37;7.90;;;3.80;;
62863;SDS011;48954;59.950;11.014;2023-03-01T06:11:13;4.10;;;1.80;;
62863;SDS011;48954;59.950;11.014;2023-03-01T06:13:45;4.80;;;2.90;;
62863;SDS011;48954;59.950;11.014;2023-03-01T06:16:27;12.60;;;4.20;;
62863;SDS011;48954;59.950;11.014;2023-03-01T06:19:08;8.20;;;3.60;;
62863;SDS011;48954;59.950;11.014;2023-03-01T06:21:37;6.10;;;2.90;;
62863;SDS011;48954;59.950;11.014;2023-03-01T06:24:04;6.20;;;3.00;;
62863;SDS011;48954;59.950;11.014;2023-03-01T06:26:30;5.60;;;2.90;;
62863;SDS011;48954;59.950;11.014;2023-03-01T06:29:12;14.30;;;5.20;;
62863;SDS011;48954;59.950;11.014;2023-03-01T06:43:24;6.90;;;3.40;;
62863;SDS011;48954;59.950;11.014;2023-03-01T06:46:06;7.10;;;3.30;;
62863;SDS011;48954;59.950;11.014;2023-03-01T06:49:26;13.30;;;5.30;;
62863;SDS011;48954;59.950;11.014;2023-03-01T06:58:08;17.30;;;8.10;;
62863;SDS011;48954;59.950;11.014;2023-03-01T07:01:30;18.00;;;6.90;;
62863;SDS011;48954;59.950;11.014;2023-03-01T07:04:56;12.10;;;5.00;;
62863;SDS011;48954;59.950;11.014;2023-03-01T07:08:28;12.00;;;4.20;;
62863;SDS011;48954;59.950;11.014;2023-03-01T07:11:49;6.70;;;2.60;;
62863;SDS011;48954;59.950;11.014;2023-03-01T07:14:53;6.20;;;2.50;;
62863;SDS011;48954;59.950;11.014;2023-03-01T07:18:14;3.90;;;1.80;;
62863;SDS011;48954;59.950;11.014;2023-03-01T07:21:04;4.40;;;2.20;;
62863;SDS011;48954;59.950;11.014;2023-03-01T07:23:52;9.10;;;4.00;;
62863;SDS011;48954;59.950;11.014;2023-03-01T07:26:34;13.60;;;4.80;;
62863;SDS011;48954;59.950;11.014;2023-03-01T07:29:16;11.30;;;5.10;;
62863;SDS011;48954;59.950;11.014;2023-03-01T07:31:58;9.20;;;4.40;;
62863;SDS011;48954;59.950;11.014;2023-03-01T07:34:39;6.70;;;3.20;;
62863;SDS011;48954;59.950;11.014;2023-03-01T07:37:19;4.60;;;2.40;;
62863;SDS011;48954;59.950;11.014;2023-03-01T07:40:05;5.10;;;2.20;;
62863;SDS011;48954;59.950;11.014;2023-03-01T07:42:46;5.90;;;2.90;;
62863;SDS011;48954;59.950;11.014;2023-03-01T07:45:26;21.10;;;10.30;;
62863;SDS011;48954;59.950;11.014;2023-03-01T07:48:11;13.40;;;6.30;;
62863;SDS011;48954;59.950;11.014;2023-03-01T07:50:40;8.00;;;3.70;;
62863;SDS011;48954;59.950;11.014;2023-03-01T07:53:11;5.70;;;3.00;;
62863;SDS011;48954;59.950;11.014;2023-03-01T07:55:49;12.50;;;5.90;;
62863;SDS011;48954;59.950;11.014;2023-03-01T07:58:17;10.10;;;4.90;;
62863;SDS011;48954;59.950;11.014;2023-03-01T08:01:00;8.90;;;5.00;;
62863;SDS011;48954;59.950;11.014;2023-03-01T08:03:35;11.20;;;4.90;;
62863;SDS011;48954;59.950;11.014;2023-03-01T08:06:07;9.90;;;4.50;;
62863;SDS011;48954;59.950;11.014;2023-03-01T08:08:36;14.40;;;6.80;;
62863;SDS011;48954;59.950;11.014;2023-03-01T08:11:06;19.90;;;8.90;;
62863;SDS011;48954;59.950;11.014;2023-03-01T08:13:40;18.40;;;9.10;;
62863;SDS011;48954;59.950;11.014;2023-03-01T08:16:11;18.20;;;8.70;;
62863;SDS011;48954;59.950;11.014;2023-03-01T08:18:38;24.00;;;10.00;;
62863;SDS011;48954;59.950;11.014;2023-03-01T08:21:13;20.20;;;10.10;;
62863;SDS011;48954;59.950;11.014;2023-03-01T08:23:56;30.50;;;12.90;;
62863;SDS011;48954;59.950;11.014;2023-03-01T08:26:28;29.10;;;12.40;;
62863;SDS011;48954;59.950;11.014;2023-03-01T08:29:09;33.90;;;12.20;;
62863;SDS011;48954;59.950;11.014;2023-03-01T08:31:37;58.10;;;17.30;;
62863;SDS011;48954;59.950;11.014;2023-03-01T08:34:06;53.90;;;16.40;;
62863;SDS011;48954;59.950;11.014;2023-03-01T08:36:52;29.60;;;8.70;;
62863;SDS011;48954;59.950;11.014;2023-03-01T08:39:25;30.80;;;9.80;;
62863;SDS011;48954;59.950;11.014;2023-03-01T08:41:53;25.50;;;10.00;;
62863;SDS011;48954;59.950;11.014;2023-03-01T08:44:28;19.30;;;7.50;;
62863;SDS011;48954;59.950;11.014;2023-03-01T08:47:01;29.90;;;9.50;;
62863;SDS011;48954;59.950;11.014;2023-03-01T08:49:28;26.50;;;10.90;;
62863;SDS011;48954;59.950;11.014;2023-03-01T08:52:08;25.80;;;10.20;;
62863;SDS011;48954;59.950;11.014;2023-03-01T08:54:35;25.20;;;8.70;;
62863;SDS011;48954;59.950;11.014;2023-03-01T08:57:02;11.00;;;5.70;;
62863;SDS011;48954;59.950;11.014;2023-03-01T08:59:32;11.80;;;5.30;;
62863;SDS011;48954;59.950;11.014;2023-03-01T09:02:11;15.40;;;6.80;;
62863;SDS011;48954;59.950;11.014;2023-03-01T09:07:28;18.70;;;7.90;;
62863;SDS011;48954;59.950;11.014;2023-03-01T09:10:00;17.00;;;6.00;;
62863;SDS011;48954;59.950;11.014;2023-03-01T09:12:27;13.50;;;4.70;;
62863;SDS011;48954;59.950;11.014;2023-03-01T09:14:54;9.90;;;3.90;;
62863;SDS011;48954;59.950;11.014;2023-03-01T09:17:28;13.70;;;4.70;;
62863;SDS011;48954;59.950;11.014;2023-03-01T09:19:55;9.70;;;4.80;;
62863;SDS011;48954;59.950;11.014;2023-03-01T09:22:21;10.90;;;3.80;;
62863;SDS011;48954;59.950;11.014;2023-03-01T09:24:48;11.40;;;4.20;;
62863;SDS011;48954;59.950;11.014;2023-03-01T09:27:16;10.30;;;5.10;;
62863;SDS011;48954;59.950;11.014;2023-03-01T09:29:43;14.70;;;7.00;;
62863;SDS011;48954;59.950;11.014;2023-03-01T09:32:10;16.30;;;6.00;;
62863;SDS011;48954;59.950;11.014;2023-03-01T09:34:37;15.50;;;6.50;;
62863;SDS011;48954;59.950;11.014;2023-03-01T09:37:08;15.10;;;6.30;;
62863;SDS011;48954;59.950;11.014;2023-03-01T09:39:35;11.90;;;5.00;;
62863;SDS011;48954;59.950;11.014;2023-03-01T09:42:02;9.20;;;4.00;;
62863;SDS011;48954;59.950;11.014;2023-03-01T09:44:36;7.30;;;3.00;;
62863;SDS011;48954;59.950;11.014;2023-03-01T09:47:09;7.60;;;2.60;;
62863;SDS011;48954;59.950;11.014;2023-03-01T09:49:41;4.90;;;2.60;;
62863;SDS011;48954;59.950;11.014;2023-03-01T09:52:42;5.30;;;2.30;;
62863;SDS011;48954;59.950;11.014;2023-03-01T09:55:17;6.70;;;3.20;;
62863;SDS011;48954;59.950;11.014;2023-03-01T10:01:02;5.60;;;3.30;;
62863;SDS011;48954;59.950;11.014;2023-03-01T10:03:43;7.80;;;3.20;;
62863;SDS011;48954;59.950;11.014;2023-03-01T10:06:20;9.40;;;3.30;;
62863;SDS011;48954;59.950;11.014;2023-03-01T10:11:27;6.90;;;3.10;;
62863;SDS011;48954;59.950;11.014;2023-03-01T10:14:27;8.60;;;3.60;;
62863;SDS011;48954;59.950;11.014;2023-03-01T10:17:08;6.90;;;2.50;;
62863;SDS011;48954;59.950;11.014;2023-03-01T10:19:47;5.30;;;2.90;;
62863;SDS011;48954;59.950;11.014;2023-03-01T10:22:19;7.40;;;2.60;;
62863;SDS011;48954;59.950;11.014;2023-03-01T10:24:49;8.10;;;2.90;;
62863;SDS011;48954;59.950;11.014;2023-03-01T10:27:23;9.40;;;3.10;;
62863;SDS011;48954;59.950;11.014;2023-03-01T10:30:01;6.40;;;2.10;;
62863;SDS011;48954;59.950;11.014;2023-03-01T10:32:39;10.20;;;2.90;;
62863;SDS011;48954;59.950;11.014;2023-03-01T10:35:17;2.30;;;1.10;;
62863;SDS011;48954;59.950;11.014;2023-03-01T10:43:04;1.00;;;0.60;;
62863;SDS011;48954;59.950;11.014;2023-03-01T10:45:36;1.60;;;0.50;;
62863;SDS011;48954;59.950;11.014;2023-03-01T10:48:14;1.90;;;0.60;;
62863;SDS011;48954;59.950;11.014;2023-03-01T10:53:28;0.90;;;0.50;;
62863;SDS011;48954;59.950;11.014;2023-03-01T10:58:28;1.80;;;0.70;;
62863;SDS011;48954;59.950;11.014;2023-03-01T11:00:57;1.40;;;0.50;;
62863;SDS011;48954;59.950;11.014;2023-03-01T11:08:45;7.10;;;2.50;;
62863;SDS011;48954;59.950;11.014;2023-03-01T11:13:52;2.60;;;1.50;;
62863;SDS011;48954;59.950;11.014;2023-03-01T11:16:36;1.90;;;1.00;;
62863;SDS011;48954;59.950;11.014;2023-03-01T11:24:34;1.00;;;0.50;;
62863;SDS011;48954;59.950;11.014;2023-03-01T11:27:32;3.30;;;1.20;;
62863;SDS011;48954;59.950;11.014;2023-03-01T11:30:06;2.50;;;1.60;;
62863;SDS011;48954;59.950;11.014;2023-03-01T11:33:08;0.90;;;0.60;;
62863;SDS011;48954;59.950;11.014;2023-03-01T11:41:52;1.50;;;0.60;;
62863;SDS011;48954;59.950;11.014;2023-03-01T11:44:54;2.60;;;0.60;;
62863;SDS011;48954;59.950;11.014;2023-03-01T11:50:39;1.30;;;0.60;;
62863;SDS011;48954;59.950;11.014;2023-03-01T11:56:10;3.20;;;0.70;;
62863;SDS011;48954;59.950;11.014;2023-03-01T12:02:12;0.90;;;0.40;;
62863;SDS011;48954;59.950;11.014;2023-03-01T12:08:08;0.80;;;0.40;;
62863;SDS011;48954;59.950;11.014;2023-03-01T12:11:16;1.40;;;0.50;;
62863;SDS011;48954;59.950;11.014;2023-03-01T12:14:20;1.20;;;0.50;;
62863;SDS011;48954;59.950;11.014;2023-03-01T12:20:22;3.70;;;0.90;;
62863;SDS011;48954;59.950;11.014;2023-03-01T12:32:13;1.00;;;0.60;;
62863;SDS011;48954;59.950;11.014;2023-03-01T12:41:34;0.80;;;0.50;;
62863;SDS011;48954;59.950;11.014;2023-03-01T12:44:30;3.10;;;0.50;;
62863;SDS011;48954;59.950;11.014;2023-03-01T12:50:21;1.60;;;0.50;;
62863;SDS011;48954;59.950;11.014;2023-03-01T12:53:04;0.80;;;0.50;;
62863;SDS011;48954;59.950;11.014;2023-03-01T12:55:45;1.10;;;0.30;;
62863;SDS011;48954;59.950;11.014;2023-03-01T13:01:40;2.70;;;1.00;;
62863;SDS011;48954;59.950;11.014;2023-03-01T13:04:27;0.80;;;0.30;;
62863;SDS011;48954;59.950;11.014;2023-03-01T13:15:37;2.00;;;0.50;;
62863;SDS011;48954;59.950;11.014;2023-03-01T13:21:02;3.40;;;0.50;;
62863;SDS011;48954;59.950;11.014;2023-03-01T13:23:47;1.40;;;0.30;;
62863;SDS011;48954;59.950;11.014;2023-03-01T13:26:28;1.40;;;0.20;;
62863;SDS011;48954;59.950;11.014;2023-03-01T13:29:11;0.90;;;0.20;;
62863;SDS011;48954;59.950;11.014;2023-03-01T13:34:42;0.10;;;0.10;;
62863;SDS011;48954;59.950;11.014;2023-03-01T13:37:18;1.90;;;0.90;;
62863;SDS011;48954;59.950;11.014;2023-03-01T13:39:47;0.90;;;0.40;;
62863;SDS011;48954;59.950;11.014;2023-03-01T13:42:32;1.10;;;0.20;;
62863;SDS011;48954;59.950;11.014;2023-03-01T13:45:01;1.70;;;0.40;;
62863;SDS011;48954;59.950;11.014;2023-03-01T13:47:41;2.40;;;0.20;;
62863;SDS011;48954;59.950;11.014;2023-03-01T13:50:25;0.90;;;0.20;;
62863;SDS011;48954;59.950;11.014;2023-03-01T13:53:09;2.10;;;0.50;;
62863;SDS011;48954;59.950;11.014;2023-03-01T13:56:16;1.70;;;0.70;;
62863;SDS011;48954;59.950;11.014;2023-03-01T13:59:06;2.00;;;1.00;;
62863;SDS011;48954;59.950;11.014;2023-03-01T14:01:53;3.40;;;1.60;;
62863;SDS011;48954;59.950;11.014;2023-03-01T14:04:31;1.30;;;0.70;;
62863;SDS011;48954;59.950;11.014;2023-03-01T14:10:03;2.60;;;0.90;;
62863;SDS011;48954;59.950;11.014;2023-03-01T14:12:39;1.50;;;0.60;;
62863;SDS011;48954;59.950;11.014;2023-03-01T14:15:33;0.60;;;0.30;;
62863;SDS011;48954;59.950;11.014;2023-03-01T14:18:57;2.40;;;0.40;;
62863;SDS011;48954;59.950;11.014;2023-03-01T14:21:49;2.50;;;0.50;;
62863;SDS011;48954;59.950;11.014;2023-03-01T14:24:46;2.40;;;0.40;;
62863;SDS011;48954;59.950;11.014;2023-03-01T14:27:14;1.00;;;0.50;;
62863;SDS011;48954;59.950;11.014;2023-03-01T14:29:59;0.60;;;0.30;;
62863;SDS011;48954;59.950;11.014;2023-03-01T14:32:31;0.90;;;0.30;;
62863;SDS011;48954;59.950;11.014;2023-03-01T14:35:34;0.60;;;0.30;;
62863;SDS011;48954;59.950;11.014;2023-03-01T14:38:27;1.30;;;0.40;;
62863;SDS011;48954;59.950;11.014;2023-03-01T14:41:14;1.40;;;0.50;;
62863;SDS011;48954;59.950;11.014;2023-03-01T14:43:58;2.50;;;0.60;;
62863;SDS011;48954;59.950;11.014;2023-03-01T14:46:43;1.60;;;0.50;;
62863;SDS011;48954;59.950;11.014;2023-03-01T14:49:25;1.80;;;0.50;;
62863;SDS011;48954;59.950;11.014;2023-03-01T14:52:25;2.40;;;0.50;;
62863;SDS011;48954;59.950;11.014;2023-03-01T14:55:56;1.00;;;0.40;;
62863;SDS011;48954;59.950;11.014;2023-03-01T14:58:23;1.10;;;0.50;;
62863;SDS011;48954;59.950;11.014;2023-03-01T15:01:05;3.90;;;1.30;;
62863;SDS011;48954;59.950;11.014;2023-03-01T15:03:54;1.60;;;0.70;;
62863;SDS011;48954;59.950;11.014;2023-03-01T15:06:37;2.30;;;0.60;;
62863;SDS011;48954;59.950;11.014;2023-03-01T15:09:21;2.30;;;0.90;;
62863;SDS011;48954;59.950;11.014;2023-03-01T15:18:20;1.30;;;0.50;;
62863;SDS011;48954;59.950;11.014;2023-03-01T15:21:42;1.40;;;0.50;;
62863;SDS011;48954;59.950;11.014;2023-03-01T15:24:29;0.40;;;0.30;;
62863;SDS011;48954;59.950;11.014;2023-03-01T15:27:17;1.70;;;0.50;;
62863;SDS011;48954;59.950;11.014;2023-03-01T15:30:00;1.70;;;0.80;;
62863;SDS011;48954;59.950;11.014;2023-03-01T15:32:44;1.80;;;0.70;;
62863;SDS011;48954;59.950;11.014;2023-03-01T15:35:51;1.60;;;0.60;;
62863;SDS011;48954;59.950;11.014;2023-03-01T15:38:36;3.50;;;1.10;;
62863;SDS011;48954;59.950;11.014;2023-03-01T15:41:46;3.00;;;1.30;;
62863;SDS011;48954;59.950;11.014;2023-03-01T15:44:47;4.20;;;1.30;;
62863;SDS011;48954;59.950;11.014;2023-03-01T15:47:32;4.40;;;0.90;;
62863;SDS011;48954;59.950;11.014;2023-03-01T15:50:42;2.10;;;0.90;;
62863;SDS011;48954;59.950;11.014;2023-03-01T15:53:22;2.10;;;0.70;;
62863;SDS011;48954;59.950;11.014;2023-03-01T16:07:58;4.90;;;1.90;;
62863;SDS011;48954;59.950;11.014;2023-03-01T16:10:40;2.90;;;1.20;;
62863;SDS011;48954;59.950;11.014;2023-03-01T17:23:42;19.20;;;6.90;;
62863;SDS011;48954;59.950;11.014;2023-03-01T17:26:43;13.20;;;6.50;;
62863;SDS011;48954;59.950;11.014;2023-03-01T17:29:26;15.70;;;6.80;;
62863;SDS011;48954;59.950;11.014;2023-03-01T17:35:18;14.80;;;7.10;;
62863;SDS011;48954;59.950;11.014;2023-03-01T17:38:22;16.20;;;7.10;;
62863;SDS011;48954;59.950;11.014;2023-03-01T17:41:45;16.30;;;8.90;;
62863;SDS011;48954;59.950;11.014;2023-03-01T17:44:56;26.80;;;9.80;;
62863;SDS011;48954;59.950;11.014;2023-03-01T17:48:03;20.70;;;8.70;;
62863;SDS011;48954;59.950;11.014;2023-03-01T17:51:05;20.40;;;9.80;;
62863;SDS011;48954;59.950;11.014;2023-03-01T17:54:26;14.80;;;6.60;;
62863;SDS011;48954;59.950;11.014;2023-03-01T17:56:57;13.40;;;6.90;;
62863;SDS011;48954;59.950;11.014;2023-03-01T17:59:24;15.20;;;7.00;;
62863;SDS011;48954;59.950;11.014;2023-03-01T18:01:51;13.90;;;6.00;;
62863;SDS011;48954;59.950;11.014;2023-03-01T18:04:23;13.90;;;6.20;;
62863;SDS011;48954;59.950;11.014;2023-03-01T18:06:58;14.00;;;6.40;;
62863;SDS011;48954;59.950;11.014;2023-03-01T18:09:34;13.10;;;5.40;;
62863;SDS011;48954;59.950;11.014;2023-03-01T18:12:14;19.70;;;6.70;;
62863;SDS011;48954;59.950;11.014;2023-03-01T18:14:55;12.20;;;5.50;;
62863;SDS011;48954;59.950;11.014;2023-03-01T18:17:37;13.80;;;5.10;;
62863;SDS011;48954;59.950;11.014;2023-03-01T18:20:19;10.20;;;5.10;;
62863;SDS011;48954;59.950;11.014;2023-03-01T18:23:04;11.20;;;4.40;;
62863;SDS011;48954;59.950;11.014;2023-03-01T18:25:49;11.80;;;4.70;;
62863;SDS011;48954;59.950;11.014;2023-03-01T18:28:47;8.60;;;4.00;;
62863;SDS011;48954;59.950;11.014;2023-03-01T18:31:33;8.50;;;4.20;;
62863;SDS011;48954;59.950;11.014;2023-03-01T18:34:14;9.30;;;4.90;;
62863;SDS011;48954;59.950;11.014;2023-03-01T18:37:02;10.50;;;4.20;;
62863;SDS011;48954;59.950;11.014;2023-03-01T18:39:50;13.70;;;5.20;;
62863;SDS011;48954;59.950;11.014;2023-03-01T18:42:33;11.90;;;4.20;;
62863;SDS011;48954;59.950;11.014;2023-03-01T18:45:21;12.70;;;4.60;;
62863;SDS011;48954;59.950;11.014;2023-03-01T18:48:02;18.20;;;6.60;;
62863;SDS011;48954;59.950;11.014;2023-03-01T18:50:41;20.00;;;8.40;;
62863;SDS011;48954;59.950;11.014;2023-03-01T18:53:26;17.90;;;6.90;;
62863;SDS011;48954;59.950;11.014;2023-03-01T18:56:09;10.20;;;5.10;;
62863;SDS011;48954;59.950;11.014;2023-03-01T18:58:51;20.50;;;8.30;;
62863;SDS011;48954;59.950;11.014;2023-03-01T19:01:33;21.70;;;9.20;;
62863;SDS011;48954;59.950;11.014;2023-03-01T19:04:15;30.60;;;12.70;;
62863;SDS011;48954;59.950;11.014;2023-03-01T19:06:49;31.30;;;13.50;;
62863;SDS011;48954;59.950;11.014;2023-03-01T19:09:16;21.80;;;9.40;;
62863;SDS011;48954;59.950;11.014;2023-03-01T19:11:42;22.90;;;10.80;;